createdAt,value
2023-04-05T00:00:34.940Z,12.10
2023-04-05T00:03:01.904Z,10.83
2023-04-05T00:05:34.268Z,11.87
2023-04-05T00:08:01.767Z,15.17
2023-04-05T00:10:30.759Z,11.93
2023-04-05T00:12:58.590Z,10.63
2023-04-05T00:15:27.372Z,9.70
2023-04-05T00:17:55.227Z,13.33
2023-04-05T00:20:22.431Z,13.90
2023-04-05T00:22:50.630Z,11.03
2023-04-05T00:25:18.617Z,11.73
2023-04-05T00:27:45.842Z,9.87
2023-04-05T00:30:20.626Z,12.00
2023-04-05T00:32:51.519Z,7.50
2023-04-05T00:35:18.613Z,7.83
2023-04-05T00:37:45.699Z,7.93
2023-04-05T00:40:12.898Z,10.77
2023-04-05T00:42:39.911Z,8.00
2023-04-05T00:45:07.685Z,10.43
2023-04-05T00:47:34.910Z,11.40
2023-04-05T00:50:04.234Z,12.53
2023-04-05T00:52:31.136Z,9.63
2023-04-05T00:54:58.763Z,11.80
2023-04-05T00:57:26.390Z,10.77
2023-04-05T00:59:53.413Z,10.10
2023-04-05T01:02:39.432Z,10.57
2023-04-05T01:05:27.321Z,14.23
2023-04-05T01:08:22.415Z,13.57
2023-04-05T01:10:57.276Z,10.07
2023-04-05T01:13:26.043Z,8.33
2023-04-05T01:15:52.944Z,10.10
2023-04-05T01:18:22.001Z,9.77
2023-04-05T01:21:39.663Z,11.77
2023-04-05T01:24:26.118Z,10.30
2023-04-05T01:27:16.462Z,11.73
2023-04-05T01:30:03.132Z,9.80
2023-04-05T01:33:28.586Z,9.73
2023-04-05T01:36:31.349Z,10.67
2023-04-05T01:38:59.505Z,11.80
2023-04-05T01:41:27.507Z,10.03
2023-04-05T01:43:54.337Z,10.80
2023-04-05T01:46:21.365Z,10.33
2023-04-05T01:48:48.233Z,9.07
2023-04-05T01:51:15.184Z,9.90
2023-04-05T01:53:42.096Z,11.50
2023-04-05T01:56:08.927Z,8.87
2023-04-05T01:58:35.841Z,10.73
2023-04-05T02:01:02.766Z,12.90
2023-04-05T02:03:29.916Z,9.63
2023-04-05T02:05:58.139Z,9.30
2023-04-05T02:08:25.234Z,8.90
2023-04-05T02:10:53.947Z,13.70
2023-04-05T02:13:23.921Z,11.73
2023-04-05T02:15:51.217Z,13.63
2023-04-05T02:18:31.350Z,11.03
2023-04-05T02:21:06.812Z,10.77
2023-04-05T02:23:35.060Z,8.87
2023-04-05T02:26:01.925Z,9.40
2023-04-05T02:28:29.194Z,9.30
2023-04-05T02:30:56.175Z,9.33
2023-04-05T02:33:23.315Z,10.60
2023-04-05T02:35:52.093Z,8.23
2023-04-05T02:38:19.001Z,9.53
2023-04-05T02:40:52.095Z,7.97
2023-04-05T02:43:18.971Z,8.33
2023-04-05T02:45:47.146Z,8.70
2023-04-05T02:48:14.109Z,10.90
2023-04-05T02:50:42.001Z,8.37
2023-04-05T02:53:09.356Z,8.00
2023-04-05T02:55:36.227Z,11.67
2023-04-05T02:58:03.097Z,8.53
2023-04-05T03:00:29.966Z,9.70
2023-04-05T03:02:56.835Z,8.07
2023-04-05T03:05:23.725Z,8.63
2023-04-05T03:07:52.145Z,9.40
2023-04-05T03:10:22.673Z,9.37
2023-04-05T03:12:51.500Z,7.53
2023-04-05T03:15:18.418Z,6.97
2023-04-05T03:17:45.932Z,8.80
2023-04-05T03:20:13.640Z,8.57
2023-04-05T03:22:41.666Z,6.27
2023-04-05T03:25:08.774Z,7.47
2023-04-05T03:27:36.730Z,8.87
2023-04-05T03:30:04.295Z,9.23
2023-04-05T03:32:31.247Z,13.50
2023-04-05T03:34:58.153Z,8.47
2023-04-05T03:37:25.041Z,10.03
2023-04-05T03:39:51.895Z,10.17
2023-04-05T03:42:18.734Z,8.60
2023-04-05T03:44:45.645Z,9.03
2023-04-05T03:47:13.249Z,9.23
2023-04-05T03:49:41.155Z,10.53
2023-04-05T03:52:08.655Z,8.73
2023-04-05T03:54:35.922Z,7.37
2023-04-05T03:57:03.232Z,10.23
2023-04-05T03:59:30.231Z,7.97
2023-04-05T04:01:57.221Z,10.30
2023-04-05T04:04:24.080Z,10.20
2023-04-05T04:06:51.568Z,10.53
2023-04-05T04:09:18.445Z,12.60
2023-04-05T04:11:45.327Z,7.83
2023-04-05T04:14:12.176Z,8.63
2023-04-05T04:16:39.074Z,10.17
2023-04-05T04:19:05.957Z,10.43
2023-04-05T04:21:33.765Z,16.23
2023-04-05T04:24:00.979Z,16.13
2023-04-05T04:26:29.128Z,14.07
2023-04-05T04:28:56.812Z,18.10
2023-04-05T04:31:23.821Z,16.23
2023-04-05T04:33:51.564Z,10.73
2023-04-05T04:36:26.603Z,12.03
2023-04-05T04:38:53.816Z,11.90
2023-04-05T04:41:22.648Z,13.10
2023-04-05T04:43:49.530Z,13.90
2023-04-05T04:46:19.110Z,13.07
2023-04-05T04:48:47.332Z,19.57
2023-04-05T04:51:14.169Z,26.10
2023-04-05T04:53:41.066Z,27.73
2023-04-05T04:56:08.836Z,26.60
2023-04-05T04:58:35.981Z,28.07
2023-04-05T05:01:11.003Z,19.23
2023-04-05T05:03:41.315Z,24.83
2023-04-05T05:06:08.669Z,23.67
2023-04-05T05:08:35.589Z,26.53
2023-04-05T05:11:02.721Z,28.23
2023-04-05T05:13:29.912Z,16.90
2023-04-05T05:15:58.043Z,15.60
2023-04-05T05:18:24.906Z,18.50
2023-04-05T05:20:52.754Z,14.23
2023-04-05T05:23:21.204Z,13.03
2023-04-05T05:25:48.171Z,14.30
2023-04-05T05:28:15.288Z,14.80
2023-04-05T05:30:42.470Z,15.30
2023-04-05T05:33:09.769Z,12.90
2023-04-05T05:35:38.141Z,13.57
2023-04-05T05:38:06.279Z,13.57
2023-04-05T05:40:34.496Z,14.27
2023-04-05T05:43:01.367Z,11.67
2023-04-05T05:45:28.388Z,10.60
2023-04-05T05:47:56.800Z,14.17
2023-04-05T05:50:23.771Z,11.10
2023-04-05T05:52:51.504Z,13.97
2023-04-05T05:55:18.410Z,13.37
2023-04-05T05:57:45.411Z,16.13
2023-04-05T06:00:13.293Z,15.43
2023-04-05T06:02:40.631Z,15.87
2023-04-05T06:05:08.948Z,16.83
2023-04-05T06:07:38.001Z,12.80
2023-04-05T06:10:06.324Z,16.37
2023-04-05T06:12:33.864Z,13.50
2023-04-05T06:15:02.251Z,12.83
2023-04-05T06:17:29.223Z,15.47
2023-04-05T06:19:56.220Z,13.03
2023-04-05T06:22:23.671Z,15.17
2023-04-05T06:24:50.515Z,12.77
2023-04-05T06:27:17.385Z,17.67
2023-04-05T06:29:44.224Z,13.87
2023-04-05T06:32:11.026Z,14.17
2023-04-05T06:34:37.854Z,13.10
2023-04-05T06:37:04.829Z,17.73
2023-04-05T06:39:31.862Z,12.73
2023-04-05T06:41:58.882Z,12.23
2023-04-05T06:44:25.887Z,14.87
2023-04-05T06:46:52.749Z,15.77
2023-04-05T06:49:19.763Z,12.17
2023-04-05T06:51:46.664Z,13.33
2023-04-05T06:54:13.624Z,13.23
2023-04-05T06:56:40.637Z,10.20
2023-04-05T06:59:07.592Z,12.53
2023-04-05T07:01:34.580Z,10.70
2023-04-05T07:04:01.601Z,9.57
2023-04-05T07:06:28.471Z,10.80
2023-04-05T07:08:55.823Z,9.37
2023-04-05T07:11:22.687Z,11.70
2023-04-05T07:13:49.577Z,10.60
2023-04-05T07:16:18.149Z,8.27
2023-04-05T07:18:45.392Z,9.27
2023-04-05T07:21:12.305Z,10.67
2023-04-05T07:23:39.154Z,6.87
2023-04-05T07:26:07.389Z,7.60
2023-04-05T07:28:35.881Z,6.60
2023-04-05T07:31:05.284Z,8.87
2023-04-05T07:33:32.328Z,6.82
2023-04-05T07:35:59.528Z,6.97
2023-04-05T07:38:30.805Z,8.73
2023-04-05T07:40:58.737Z,6.07
2023-04-05T07:43:25.924Z,6.40
2023-04-05T07:46:01.113Z,7.72
2023-04-05T07:48:28.036Z,7.55
2023-04-05T07:50:55.097Z,6.25
2023-04-05T07:53:23.241Z,7.30
2023-04-05T07:55:50.955Z,7.65
2023-04-05T07:58:17.805Z,5.93
2023-04-05T08:00:45.011Z,6.15
2023-04-05T08:03:13.272Z,6.82
2023-04-05T08:05:40.151Z,6.43
2023-04-05T08:08:08.800Z,4.90
2023-04-05T08:10:39.995Z,6.63
2023-04-05T08:13:08.240Z,7.85
2023-04-05T08:15:36.003Z,5.95
2023-04-05T08:18:03.142Z,5.38
2023-04-05T08:20:30.143Z,7.68
2023-04-05T08:22:57.061Z,7.32
2023-04-05T08:25:24.369Z,6.93
2023-04-05T08:27:51.318Z,6.18
2023-04-05T08:30:19.921Z,5.97
2023-04-05T08:32:46.843Z,6.80
2023-04-05T08:35:13.692Z,5.60
2023-04-05T08:37:40.953Z,6.78
2023-04-05T08:40:08.726Z,6.53
2023-04-05T08:42:52.406Z,6.13
2023-04-05T08:45:22.815Z,8.75
2023-04-05T08:47:53.322Z,6.75
2023-04-05T08:50:20.516Z,8.43
2023-04-05T08:52:50.928Z,8.32
2023-04-05T08:55:18.161Z,6.43
2023-04-05T08:57:53.997Z,9.13
2023-04-05T09:00:21.421Z,6.03
2023-04-05T09:02:56.632Z,5.88
2023-04-05T09:05:24.912Z,8.02
2023-04-05T09:07:52.689Z,7.90
2023-04-05T09:10:21.030Z,6.47
2023-04-05T09:12:48.744Z,9.07
2023-04-05T09:15:17.784Z,5.63
2023-04-05T09:17:44.778Z,6.32
2023-04-05T09:20:11.666Z,5.60
2023-04-05T09:22:46.340Z,9.20
2023-04-05T09:25:31.878Z,5.93
2023-04-05T09:28:00.569Z,6.57
2023-04-05T09:30:28.092Z,6.78
2023-04-05T09:32:56.765Z,7.68
2023-04-05T09:35:28.306Z,6.78
2023-04-05T09:37:59.274Z,7.93
2023-04-05T09:40:48.461Z,8.40
2023-04-05T09:43:37.019Z,8.85
2023-04-05T09:46:03.882Z,7.38
2023-04-05T09:48:50.332Z,7.22
2023-04-05T09:51:19.579Z,8.02
2023-04-05T09:54:05.722Z,7.10
2023-04-05T09:56:38.859Z,8.07
2023-04-05T09:59:12.574Z,7.65
2023-04-05T10:01:44.699Z,5.82
2023-04-05T10:04:11.693Z,9.18
2023-04-05T10:06:43.040Z,6.80
2023-04-05T10:09:11.894Z,6.88
2023-04-05T10:11:39.447Z,5.88
2023-04-05T10:14:08.715Z,7.65
2023-04-05T10:16:53.841Z,7.13
2023-04-05T10:19:32.323Z,6.97
2023-04-05T10:22:02.827Z,8.70
2023-04-05T10:24:52.662Z,6.25
2023-04-05T10:27:32.968Z,7.00
2023-04-05T10:30:08.966Z,7.00
2023-04-05T10:33:03.980Z,5.85
2023-04-05T10:35:49.739Z,7.63
2023-04-05T10:38:29.821Z,7.47
2023-04-05T10:41:23.216Z,7.43
2023-04-05T10:43:56.908Z,6.88
2023-04-05T10:46:25.255Z,8.70
2023-04-05T10:49:11.950Z,7.80
2023-04-05T10:51:39.820Z,6.85
2023-04-05T10:54:10.410Z,6.47
2023-04-05T10:56:40.802Z,8.95
2023-04-05T10:59:08.534Z,8.68
2023-04-05T11:01:36.519Z,8.63
2023-04-05T11:04:17.157Z,7.38
2023-04-05T11:06:47.944Z,7.53
2023-04-05T11:09:16.968Z,7.38
2023-04-05T11:11:46.870Z,7.93
2023-04-05T11:14:39.270Z,6.85
2023-04-05T11:17:29.035Z,8.13
2023-04-05T11:20:06.450Z,7.78
2023-04-05T11:22:33.322Z,7.60
2023-04-05T11:25:03.193Z,7.30
2023-04-05T11:27:41.105Z,7.55
2023-04-05T11:30:08.904Z,7.15
2023-04-05T11:32:44.576Z,8.13
2023-04-05T11:35:25.434Z,11.70
2023-04-05T11:38:08.410Z,7.35
2023-04-05T11:40:39.345Z,6.72
2023-04-05T11:43:10.375Z,10.77
2023-04-05T11:45:46.531Z,10.02
2023-04-05T11:48:15.304Z,9.52
2023-04-05T11:50:42.568Z,8.43
2023-04-05T11:53:22.553Z,7.20
2023-04-05T11:55:52.056Z,8.82
2023-04-05T11:58:24.590Z,8.43
2023-04-05T12:01:19.282Z,8.38
2023-04-05T12:03:57.499Z,7.22
2023-04-05T12:06:26.398Z,8.23
2023-04-05T12:08:53.543Z,8.80
2023-04-05T12:11:31.289Z,8.15
2023-04-05T12:14:01.201Z,10.45
2023-04-05T12:16:29.468Z,7.45
2023-04-05T12:18:59.336Z,6.55
2023-04-05T12:21:28.222Z,11.48
2023-04-05T12:23:55.621Z,9.25
2023-04-05T12:26:23.162Z,9.40
2023-04-05T12:28:55.982Z,7.80
2023-04-05T12:31:42.767Z,7.43
2023-04-05T12:34:12.045Z,7.78
2023-04-05T12:36:43.597Z,8.27
2023-04-05T12:39:10.722Z,7.30
2023-04-05T12:41:38.137Z,7.45
2023-04-05T12:44:31.060Z,7.28
2023-04-05T12:47:03.002Z,8.00
2023-04-05T12:49:30.257Z,10.15
2023-04-05T12:52:02.989Z,10.15
2023-04-05T12:54:31.735Z,6.82
2023-04-05T12:56:59.005Z,7.93
2023-04-05T12:59:26.033Z,8.10
2023-04-05T13:01:53.076Z,8.63
2023-04-05T13:04:20.062Z,7.38
2023-04-05T13:06:47.853Z,7.38
2023-04-05T13:09:15.141Z,7.50
2023-04-05T13:11:42.025Z,7.53
2023-04-05T13:14:09.096Z,9.90
2023-04-05T13:16:36.047Z,8.18
2023-04-05T13:19:03.087Z,10.13
2023-04-05T13:21:29.945Z,8.90
2023-04-05T13:23:56.793Z,10.10
2023-04-05T13:26:23.676Z,10.13
2023-04-05T13:28:50.778Z,8.40
2023-04-05T13:31:17.748Z,7.70
2023-04-05T13:33:44.772Z,7.93
2023-04-05T13:36:12.608Z,7.88
2023-04-05T13:38:40.224Z,6.40
2023-04-05T13:41:07.144Z,6.93
2023-04-05T13:43:34.344Z,10.45
2023-04-05T13:46:01.312Z,10.00
2023-04-05T13:48:28.188Z,8.82
2023-04-05T13:50:55.593Z,8.45
2023-04-05T13:53:22.570Z,8.65
2023-04-05T13:55:49.477Z,8.65
2023-04-05T13:58:16.443Z,7.93
2023-04-05T14:00:43.581Z,11.07
2023-04-05T14:03:10.956Z,8.80
2023-04-05T14:05:37.924Z,6.35
2023-04-05T14:08:04.881Z,7.80
2023-04-05T14:10:32.498Z,6.28
2023-04-05T14:12:59.478Z,7.43
2023-04-05T14:15:27.607Z,6.82
2023-04-05T14:17:54.617Z,6.85
2023-04-05T14:20:21.615Z,7.38
2023-04-05T14:22:48.526Z,8.30
2023-04-05T14:25:15.461Z,6.85
2023-04-05T14:27:42.693Z,6.60
2023-04-05T14:30:11.389Z,8.00
2023-04-05T14:32:38.633Z,7.93
2023-04-05T14:35:06.400Z,10.15
2023-04-05T14:37:33.322Z,5.88
2023-04-05T14:40:00.284Z,6.70
2023-04-05T14:42:37.247Z,7.43
2023-04-05T14:45:09.536Z,8.52
2023-04-05T14:47:36.388Z,6.63
2023-04-05T14:50:03.543Z,6.65
2023-04-05T14:52:30.960Z,7.25
2023-04-05T14:54:57.932Z,6.30
2023-04-05T14:57:24.990Z,7.55
2023-04-05T14:59:51.842Z,5.50
2023-04-05T15:02:19.089Z,8.18
2023-04-05T15:04:46.052Z,5.85
2023-04-05T15:07:13.249Z,6.88
2023-04-05T15:09:40.140Z,7.47
2023-04-05T15:12:07.227Z,7.38
2023-04-05T15:14:34.188Z,7.38
2023-04-05T15:17:01.209Z,7.68
2023-04-05T15:19:28.220Z,6.97
2023-04-05T15:21:55.699Z,7.63
2023-04-05T15:24:22.599Z,5.45
2023-04-05T15:26:49.567Z,6.13
2023-04-05T15:29:16.542Z,7.82
2023-04-05T15:31:43.395Z,7.25
2023-04-05T15:34:10.522Z,7.18
2023-04-05T15:36:37.417Z,7.43
2023-04-05T15:39:05.289Z,7.13
2023-04-05T15:41:34.435Z,7.47
2023-04-05T15:44:01.807Z,7.50
2023-04-05T15:46:29.677Z,6.63
2023-04-05T15:48:56.726Z,6.07
2023-04-05T15:51:23.638Z,8.70
2023-04-05T15:53:51.188Z,7.68
2023-04-05T15:56:18.324Z,7.32
2023-04-05T15:58:45.528Z,7.10
2023-04-05T16:01:13.479Z,7.13
2023-04-05T16:03:40.701Z,7.60
2023-04-05T16:06:08.128Z,9.20
2023-04-05T16:08:35.074Z,6.03
2023-04-05T16:11:02.226Z,5.90
2023-04-05T16:13:29.373Z,6.65
2023-04-05T16:15:56.645Z,6.72
2023-04-05T16:18:24.371Z,6.72
2023-04-05T16:20:51.408Z,7.45
2023-04-05T16:23:18.296Z,6.40
2023-04-05T16:25:45.125Z,6.72
2023-04-05T16:28:12.067Z,8.38
2023-04-05T16:30:39.225Z,6.47
2023-04-05T16:33:06.543Z,7.65
2023-04-05T16:35:34.419Z,7.80
2023-04-05T16:38:02.668Z,7.03
2023-04-05T16:40:30.075Z,7.85
2023-04-05T16:42:57.175Z,9.18
2023-04-05T16:45:24.140Z,10.65
2023-04-05T16:47:51.195Z,6.90
2023-04-05T16:50:18.259Z,6.72
2023-04-05T16:52:46.055Z,8.75
2023-04-05T16:55:13.169Z,8.55
2023-04-05T16:57:40.451Z,10.27
2023-04-05T17:00:09.068Z,8.50
2023-04-05T17:02:36.450Z,11.75
2023-04-05T17:05:03.814Z,6.78
2023-04-05T17:07:30.782Z,6.78
2023-04-05T17:09:58.432Z,6.72
2023-04-05T17:12:25.670Z,7.50
2023-04-05T17:14:52.683Z,8.10
2023-04-05T17:17:19.641Z,8.38
2023-04-05T17:19:46.652Z,8.68
2023-04-05T17:22:14.405Z,7.80
2023-04-05T17:24:41.400Z,6.85
2023-04-05T17:27:08.513Z,6.50
2023-04-05T17:29:35.664Z,6.13
2023-04-05T17:32:02.905Z,8.65
2023-04-05T17:34:30.129Z,6.57
2023-04-05T17:36:57.025Z,6.35
2023-04-05T17:39:23.968Z,6.43
2023-04-05T17:41:51.028Z,8.90
2023-04-05T17:44:19.058Z,10.30
2023-04-05T17:46:53.977Z,6.57
2023-04-05T17:49:24.414Z,6.55
2023-04-05T17:51:51.478Z,8.93
2023-04-05T17:54:18.610Z,7.65
2023-04-05T17:56:46.059Z,5.65
2023-04-05T17:59:13.068Z,6.10
2023-04-05T18:01:40.084Z,6.38
2023-04-05T18:04:08.815Z,8.23
2023-04-05T18:06:38.146Z,7.25
2023-04-05T18:09:05.695Z,6.88
2023-04-05T18:11:32.936Z,9.00
2023-04-05T18:13:59.971Z,12.95
2023-04-05T18:16:28.129Z,10.67
2023-04-05T18:18:55.424Z,13.02
2023-04-05T18:21:22.724Z,13.87
2023-04-05T18:23:49.718Z,10.43
2023-04-05T18:26:18.514Z,9.20
2023-04-05T18:28:49.094Z,10.73
2023-04-05T18:31:16.330Z,9.40
2023-04-05T18:33:43.358Z,8.37
2023-04-05T18:36:10.512Z,11.20
2023-04-05T18:38:37.529Z,11.23
2023-04-05T18:41:05.177Z,10.67
2023-04-05T18:43:32.272Z,8.97
2023-04-05T18:45:59.340Z,16.80
2023-04-05T18:48:26.569Z,14.90
2023-04-05T18:50:54.260Z,15.80
2023-04-05T18:53:22.168Z,17.33
2023-04-05T18:55:54.475Z,14.40
2023-04-05T18:58:21.721Z,17.20
2023-04-05T19:00:49.266Z,11.67
2023-04-05T19:03:16.725Z,21.73
2023-04-05T19:05:53.314Z,16.57
2023-04-05T19:08:20.427Z,17.20
2023-04-05T19:10:47.485Z,16.03
2023-04-05T19:13:14.610Z,18.17
2023-04-05T19:15:41.938Z,17.73
2023-04-05T19:18:09.149Z,20.63
2023-04-05T19:20:36.220Z,19.63
2023-04-05T19:23:03.326Z,21.07
2023-04-05T19:25:30.732Z,19.73
2023-04-05T19:27:57.923Z,25.80
2023-04-05T19:30:25.065Z,21.33
2023-04-05T19:32:54.916Z,19.37
2023-04-05T19:35:22.180Z,23.63
2023-04-05T19:37:49.181Z,21.00
2023-04-05T19:40:16.488Z,21.50
2023-04-05T19:42:47.588Z,21.03
2023-04-05T19:45:28.538Z,17.80
2023-04-05T19:47:58.275Z,15.23
2023-04-05T19:50:45.700Z,16.00
2023-04-05T19:53:42.832Z,15.83
2023-04-05T19:56:29.915Z,17.10
2023-04-05T19:59:02.176Z,19.27
2023-04-05T20:01:33.605Z,25.03
2023-04-05T20:04:07.566Z,28.83
2023-04-05T20:06:34.893Z,21.00
2023-04-05T20:09:08.815Z,16.83
2023-04-05T20:11:36.024Z,17.87
2023-04-05T20:14:05.530Z,19.00
2023-04-05T20:16:35.901Z,22.30
2023-04-05T20:19:07.242Z,30.13
2023-04-05T20:21:35.431Z,38.70
2023-04-05T20:24:03.103Z,36.97
2023-04-05T20:26:32.564Z,22.03
2023-04-05T20:29:02.802Z,19.63
2023-04-05T20:31:33.644Z,18.50
2023-04-05T20:34:14.854Z,25.33
2023-04-05T20:36:54.019Z,20.17
2023-04-05T20:39:23.576Z,20.97
2023-04-05T20:41:50.821Z,23.03
2023-04-05T20:44:18.265Z,22.40
2023-04-05T20:46:45.420Z,17.63
2023-04-05T20:49:12.784Z,17.63
2023-04-05T20:51:41.903Z,18.63
2023-04-05T20:54:09.759Z,18.07
2023-04-05T20:56:36.808Z,17.07
2023-04-05T20:59:04.057Z,15.63
2023-04-05T21:01:31.424Z,17.40
2023-04-05T21:03:58.565Z,21.67
2023-04-05T21:06:25.573Z,27.47
2023-04-05T21:08:52.606Z,30.03
2023-04-05T21:11:19.585Z,28.90
2023-04-05T21:13:46.692Z,28.27
2023-04-05T21:16:13.741Z,24.10
2023-04-05T21:18:40.814Z,18.73
2023-04-05T21:21:08.679Z,25.60
2023-04-05T21:23:35.775Z,21.70
2023-04-05T21:26:04.499Z,22.60
2023-04-05T21:28:31.798Z,23.73
2023-04-05T21:30:58.872Z,21.43
2023-04-05T21:33:26.014Z,17.63
2023-04-05T21:35:53.161Z,18.87
2023-04-05T21:38:20.373Z,18.77
2023-04-05T21:40:50.104Z,19.20
2023-04-05T21:43:17.654Z,21.60
2023-04-05T21:45:45.841Z,23.07
2023-04-05T21:48:12.969Z,22.57
2023-04-05T21:50:40.097Z,23.83
2023-04-05T21:53:09.276Z,21.90
2023-04-05T21:55:36.332Z,22.87
2023-04-05T21:58:03.438Z,25.80
2023-04-05T22:00:30.515Z,27.60
2023-04-05T22:02:57.594Z,21.73
2023-04-05T22:05:34.525Z,17.97
2023-04-05T22:08:05.937Z,20.67
2023-04-05T22:10:33.494Z,19.60
2023-04-05T22:13:00.556Z,17.30
2023-04-05T22:15:27.853Z,18.37
2023-04-05T22:17:54.972Z,17.13
2023-04-05T22:20:22.052Z,20.70
2023-04-05T22:22:49.059Z,16.83
2023-04-05T22:25:16.482Z,19.10
2023-04-05T22:27:43.485Z,18.63
2023-04-05T22:30:11.104Z,16.67
2023-04-05T22:32:38.289Z,20.63
2023-04-05T22:35:06.373Z,15.10
2023-04-05T22:37:36.502Z,20.33
2023-04-05T22:40:04.879Z,19.73
2023-04-05T22:42:32.133Z,17.07
2023-04-05T22:44:59.303Z,18.03
2023-04-05T22:47:26.534Z,18.90
2023-04-05T22:49:53.719Z,15.67
2023-04-05T22:52:21.030Z,20.30
2023-04-05T22:54:48.055Z,17.93
2023-04-05T22:57:15.089Z,18.13
2023-04-05T22:59:42.281Z,19.67
2023-04-05T23:02:10.032Z,14.40
2023-04-05T23:04:37.100Z,17.47
2023-04-05T23:07:04.232Z,15.77
2023-04-05T23:09:31.436Z,17.37
2023-04-05T23:11:58.421Z,19.43
2023-04-05T23:14:25.716Z,21.27
2023-04-05T23:16:52.730Z,16.60
2023-04-05T23:19:19.735Z,18.37
2023-04-05T23:21:46.703Z,14.93
2023-04-05T23:24:13.902Z,21.60
2023-04-05T23:26:40.925Z,16.43
2023-04-05T23:29:08.229Z,18.03
2023-04-05T23:31:35.518Z,17.40
2023-04-05T23:34:02.528Z,14.70
2023-04-05T23:36:29.512Z,12.50
2023-04-05T23:38:58.627Z,17.47
2023-04-05T23:41:25.714Z,18.00
2023-04-05T23:43:52.849Z,17.77
2023-04-05T23:46:19.957Z,20.47
2023-04-05T23:48:47.213Z,18.03
2023-04-05T23:51:14.202Z,17.70
2023-04-05T23:53:41.355Z,16.30
2023-04-05T23:56:08.994Z,18.63
2023-04-05T23:58:36.132Z,18.43
